sensor_id;sensor_type;location;lat;lon;timestamp;temperature;humidity
64143;DHT22;50437;51.970;5.904;2022-12-10T00:01:22;-2.00;99.90
64143;DHT22;50437;51.970;5.904;2022-12-10T00:03:49;-2.10;99.90
64143;DHT22;50437;51.970;5.904;2022-12-10T00:06:16;-2.10;99.90
64143;DHT22;50437;51.970;5.904;2022-12-10T00:08:43;-2.10;99.90
64143;DHT22;50437;51.970;5.904;2022-12-10T00:11:09;-2.10;99.90
64143;DHT22;50437;51.970;5.904;2022-12-10T00:13:36;-2.10;99.90
64143;DHT22;50437;51.970;5.904;2022-12-10T00:16:03;-2.10;99.90
64143;DHT22;50437;51.970;5.904;2022-12-10T00:18:29;-2.10;99.90
64143;DHT22;50437;51.970;5.904;2022-12-10T00:20:55;-2.10;99.90
64143;DHT22;50437;51.970;5.904;2022-12-10T00:23:21;-2.10;99.90
64143;DHT22;50437;51.970;5.904;2022-12-10T00:25:47;-2.20;99.90
64143;DHT22;50437;51.970;5.904;2022-12-10T00:28:13;-2.20;99.90
64143;DHT22;50437;51.970;5.904;2022-12-10T00:30:40;-2.20;99.90
64143;DHT22;50437;51.970;5.904;2022-12-10T00:33:06;-2.10;99.90
64143;DHT22;50437;51.970;5.904;2022-12-10T00:35:35;-2.10;99.90
64143;DHT22;50437;51.970;5.904;2022-12-10T00:38:01;-2.10;99.90
64143;DHT22;50437;51.970;5.904;2022-12-10T00:40:27;-2.10;99.90
64143;DHT22;50437;51.970;5.904;2022-12-10T00:42:53;-2.10;99.90
64143;DHT22;50437;51.970;5.904;2022-12-10T00:45:19;-2.10;99.90
64143;DHT22;50437;51.970;5.904;2022-12-10T00:47:45;-2.10;99.90
64143;DHT22;50437;51.970;5.904;2022-12-10T00:50:11;-2.10;99.90
64143;DHT22;50437;51.970;5.904;2022-12-10T00:52:37;-2.10;99.90
64143;DHT22;50437;51.970;5.904;2022-12-10T00:55:03;-2.10;99.90
64143;DHT22;50437;51.970;5.904;2022-12-10T00:57:29;-2.20;99.90
64143;DHT22;50437;51.970;5.904;2022-12-10T00:59:55;-2.20;99.90
64143;DHT22;50437;51.970;5.904;2022-12-10T01:02:21;-2.20;99.90
64143;DHT22;50437;51.970;5.904;2022-12-10T01:04:51;-2.30;99.90
64143;DHT22;50437;51.970;5.904;2022-12-10T01:07:17;-2.30;99.90
64143;DHT22;50437;51.970;5.904;2022-12-10T01:09:43;-2.40;99.90
64143;DHT22;50437;51.970;5.904;2022-12-10T01:12:09;-2.40;99.90
64143;DHT22;50437;51.970;5.904;2022-12-10T01:14:35;-2.40;99.90
64143;DHT22;50437;51.970;5.904;2022-12-10T01:17:03;-2.40;99.90
64143;DHT22;50437;51.970;5.904;2022-12-10T01:19:29;-2.40;99.90
64143;DHT22;50437;51.970;5.904;2022-12-10T01:21:56;-2.40;99.90
64143;DHT22;50437;51.970;5.904;2022-12-10T01:24:23;-2.50;99.90
64143;DHT22;50437;51.970;5.904;2022-12-10T01:26:49;-2.50;99.90
64143;DHT22;50437;51.970;5.904;2022-12-10T01:29:15;-2.50;99.90
64143;DHT22;50437;51.970;5.904;2022-12-10T01:31:41;-2.40;99.90
64143;DHT22;50437;51.970;5.904;2022-12-10T01:34:09;-2.40;99.90
64143;DHT22;50437;51.970;5.904;2022-12-10T01:36:36;-2.50;99.90
64143;DHT22;50437;51.970;5.904;2022-12-10T01:39:03;-2.50;99.90
64143;DHT22;50437;51.970;5.904;2022-12-10T01:41:33;-2.50;99.90
64143;DHT22;50437;51.970;5.904;2022-12-10T01:46:46;-2.50;99.90
64143;DHT22;50437;51.970;5.904;2022-12-10T01:49:14;-2.50;99.90
64143;DHT22;50437;51.970;5.904;2022-12-10T01:51:41;-2.60;99.90
64143;DHT22;50437;51.970;5.904;2022-12-10T01:54:08;-2.50;99.90
64143;DHT22;50437;51.970;5.904;2022-12-10T01:56:36;-2.50;99.90
64143;DHT22;50437;51.970;5.904;2022-12-10T01:59:03;-2.50;99.90
64143;DHT22;50437;51.970;5.904;2022-12-10T02:01:40;-2.50;99.90
64143;DHT22;50437;51.970;5.904;2022-12-10T02:04:17;-2.50;99.90
64143;DHT22;50437;51.970;5.904;2022-12-10T02:11:58;-2.30;99.90
64143;DHT22;50437;51.970;5.904;2022-12-10T02:14:36;-2.40;99.90
64143;DHT22;50437;51.970;5.904;2022-12-10T02:17:11;-2.30;99.90
64143;DHT22;50437;51.970;5.904;2022-12-10T02:19:44;-2.40;99.90
64143;DHT22;50437;51.970;5.904;2022-12-10T02:22:16;-2.40;99.90
64143;DHT22;50437;51.970;5.904;2022-12-10T02:24:43;-2.50;99.90
64143;DHT22;50437;51.970;5.904;2022-12-10T02:29:36;-2.50;99.90
64143;DHT22;50437;51.970;5.904;2022-12-10T02:32:04;-2.60;99.90
64143;DHT22;50437;51.970;5.904;2022-12-10T02:34:33;-2.60;99.90
64143;DHT22;50437;51.970;5.904;2022-12-10T02:37:04;-2.60;99.90
64143;DHT22;50437;51.970;5.904;2022-12-10T02:39:36;-2.60;99.90
64143;DHT22;50437;51.970;5.904;2022-12-10T02:42:04;-2.60;99.90
64143;DHT22;50437;51.970;5.904;2022-12-10T02:44:32;-2.60;99.90
64143;DHT22;50437;51.970;5.904;2022-12-10T02:46:58;-2.60;99.90
64143;DHT22;50437;51.970;5.904;2022-12-10T02:49:31;-2.60;99.90
64143;DHT22;50437;51.970;5.904;2022-12-10T02:52:05;-2.70;99.90
64143;DHT22;50437;51.970;5.904;2022-12-10T02:56:58;-2.80;99.90
64143;DHT22;50437;51.970;5.904;2022-12-10T02:59:28;-2.80;99.90
64143;DHT22;50437;51.970;5.904;2022-12-10T03:01:58;-2.80;99.90
64143;DHT22;50437;51.970;5.904;2022-12-10T03:04:28;-2.80;99.90
64143;DHT22;50437;51.970;5.904;2022-12-10T03:06:58;-2.80;99.90
64143;DHT22;50437;51.970;5.904;2022-12-10T03:09:30;-2.70;99.90
64143;DHT22;50437;51.970;5.904;2022-12-10T03:12:06;-2.70;99.90
64143;DHT22;50437;51.970;5.904;2022-12-10T03:14:34;-2.70;99.90
64143;DHT22;50437;51.970;5.904;2022-12-10T03:17:00;-2.60;99.90
64143;DHT22;50437;51.970;5.904;2022-12-10T03:19:33;-2.70;99.90
64143;DHT22;50437;51.970;5.904;2022-12-10T03:22:02;-2.70;99.90
64143;DHT22;50437;51.970;5.904;2022-12-10T03:24:28;-2.70;99.90
64143;DHT22;50437;51.970;5.904;2022-12-10T03:26:55;-2.70;99.90
64143;DHT22;50437;51.970;5.904;2022-12-10T03:29:45;-2.70;99.90
64143;DHT22;50437;51.970;5.904;2022-12-10T03:32:09;-2.70;99.90
64143;DHT22;50437;51.970;5.904;2022-12-10T03:34:34;-2.70;99.90
64143;DHT22;50437;51.970;5.904;2022-12-10T03:37:01;-2.70;99.90
64143;DHT22;50437;51.970;5.904;2022-12-10T03:39:27;-2.60;99.90
64143;DHT22;50437;51.970;5.904;2022-12-10T03:41:54;-2.70;99.90
64143;DHT22;50437;51.970;5.904;2022-12-10T03:44:27;-2.60;99.90
64143;DHT22;50437;51.970;5.904;2022-12-10T03:46:53;-2.60;99.90
64143;DHT22;50437;51.970;5.904;2022-12-10T03:49:19;-2.60;99.90
64143;DHT22;50437;51.970;5.904;2022-12-10T03:51:45;-2.60;99.90
64143;DHT22;50437;51.970;5.904;2022-12-10T03:54:11;-2.60;99.90
64143;DHT22;50437;51.970;5.904;2022-12-10T03:56:37;-2.60;99.90
64143;DHT22;50437;51.970;5.904;2022-12-10T03:59:03;-2.60;99.90
64143;DHT22;50437;51.970;5.904;2022-12-10T04:01:29;-2.50;99.90
64143;DHT22;50437;51.970;5.904;2022-12-10T04:03:55;-2.60;99.90
64143;DHT22;50437;51.970;5.904;2022-12-10T04:06:21;-2.60;99.90
64143;DHT22;50437;51.970;5.904;2022-12-10T04:08:49;-2.60;99.90
64143;DHT22;50437;51.970;5.904;2022-12-10T04:11:15;-2.50;99.90
64143;DHT22;50437;51.970;5.904;2022-12-10T04:13:41;-2.60;99.90
64143;DHT22;50437;51.970;5.904;2022-12-10T04:16:26;-2.60;99.90
64143;DHT22;50437;51.970;5.904;2022-12-10T04:18:59;-2.50;99.90
64143;DHT22;50437;51.970;5.904;2022-12-10T04:21:26;-2.50;99.90
64143;DHT22;50437;51.970;5.904;2022-12-10T04:24:11;-2.50;99.90
64143;DHT22;50437;51.970;5.904;2022-12-10T04:26:56;-2.40;99.90
64143;DHT22;50437;51.970;5.904;2022-12-10T04:29:23;-2.30;99.90
64143;DHT22;50437;51.970;5.904;2022-12-10T04:31:49;-2.30;99.90
64143;DHT22;50437;51.970;5.904;2022-12-10T04:34:15;-2.20;99.90
64143;DHT22;50437;51.970;5.904;2022-12-10T04:36:41;-2.10;99.90
64143;DHT22;50437;51.970;5.904;2022-12-10T04:39:07;-2.10;99.90
64143;DHT22;50437;51.970;5.904;2022-12-10T04:41:33;-2.10;99.90
64143;DHT22;50437;51.970;5.904;2022-12-10T04:43:59;-2.10;99.90
64143;DHT22;50437;51.970;5.904;2022-12-10T04:46:25;-2.10;99.90
64143;DHT22;50437;51.970;5.904;2022-12-10T04:48:51;-2.10;99.90
64143;DHT22;50437;51.970;5.904;2022-12-10T04:51:17;-2.10;99.90
64143;DHT22;50437;51.970;5.904;2022-12-10T04:53:43;-2.10;99.90
64143;DHT22;50437;51.970;5.904;2022-12-10T04:56:09;-2.10;99.90
64143;DHT22;50437;51.970;5.904;2022-12-10T04:58:35;-2.00;99.90
64143;DHT22;50437;51.970;5.904;2022-12-10T05:01:05;-2.10;99.90
64143;DHT22;50437;51.970;5.904;2022-12-10T05:03:32;-2.10;99.90
64143;DHT22;50437;51.970;5.904;2022-12-10T05:06:05;-2.00;99.90
64143;DHT22;50437;51.970;5.904;2022-12-10T05:08:32;-2.00;99.90
64143;DHT22;50437;51.970;5.904;2022-12-10T05:11:01;-2.00;99.90
64143;DHT22;50437;51.970;5.904;2022-12-10T05:13:28;-2.00;99.90
64143;DHT22;50437;51.970;5.904;2022-12-10T05:15:54;-2.00;99.90
64143;DHT22;50437;51.970;5.904;2022-12-10T05:18:20;-2.00;99.90
64143;DHT22;50437;51.970;5.904;2022-12-10T05:20:45;-2.00;99.90
64143;DHT22;50437;51.970;5.904;2022-12-10T05:23:12;-2.00;99.90
64143;DHT22;50437;51.970;5.904;2022-12-10T05:26:03;-2.00;99.90
64143;DHT22;50437;51.970;5.904;2022-12-10T05:28:30;-1.90;99.90
64143;DHT22;50437;51.970;5.904;2022-12-10T05:30:56;-1.90;99.90
64143;DHT22;50437;51.970;5.904;2022-12-10T05:33:22;-1.90;99.90
64143;DHT22;50437;51.970;5.904;2022-12-10T05:35:55;-2.00;99.90
64143;DHT22;50437;51.970;5.904;2022-12-10T05:38:22;-2.00;99.90
64143;DHT22;50437;51.970;5.904;2022-12-10T05:40:48;-2.10;99.90
64143;DHT22;50437;51.970;5.904;2022-12-10T05:43:14;-2.10;99.90
64143;DHT22;50437;51.970;5.904;2022-12-10T05:45:40;-2.10;99.90
64143;DHT22;50437;51.970;5.904;2022-12-10T05:48:06;-2.10;99.90
64143;DHT22;50437;51.970;5.904;2022-12-10T05:50:32;-2.10;99.90
64143;DHT22;50437;51.970;5.904;2022-12-10T05:52:58;-2.10;99.90
64143;DHT22;50437;51.970;5.904;2022-12-10T05:55:24;-2.10;99.90
64143;DHT22;50437;51.970;5.904;2022-12-10T05:57:52;-2.10;99.90
64143;DHT22;50437;51.970;5.904;2022-12-10T06:00:18;-2.10;99.90
64143;DHT22;50437;51.970;5.904;2022-12-10T06:02:44;-2.10;99.90
64143;DHT22;50437;51.970;5.904;2022-12-10T06:05:10;-2.20;99.90
64143;DHT22;50437;51.970;5.904;2022-12-10T06:07:36;-2.20;99.90
64143;DHT22;50437;51.970;5.904;2022-12-10T06:10:02;-2.20;99.90
64143;DHT22;50437;51.970;5.904;2022-12-10T06:12:28;-2.20;99.90
64143;DHT22;50437;51.970;5.904;2022-12-10T06:14:54;-2.30;99.90
64143;DHT22;50437;51.970;5.904;2022-12-10T06:17:19;-2.20;99.90
64143;DHT22;50437;51.970;5.904;2022-12-10T06:19:45;-2.20;99.90
64143;DHT22;50437;51.970;5.904;2022-12-10T06:22:11;-2.20;99.90
64143;DHT22;50437;51.970;5.904;2022-12-10T06:24:37;-2.20;99.90
64143;DHT22;50437;51.970;5.904;2022-12-10T06:27:03;-2.20;99.90
64143;DHT22;50437;51.970;5.904;2022-12-10T06:29:30;-2.20;99.90
64143;DHT22;50437;51.970;5.904;2022-12-10T06:31:56;-2.10;99.90
64143;DHT22;50437;51.970;5.904;2022-12-10T06:34:22;-2.10;99.90
64143;DHT22;50437;51.970;5.904;2022-12-10T06:36:48;-2.10;99.90
64143;DHT22;50437;51.970;5.904;2022-12-10T06:39:14;-2.30;99.90
64143;DHT22;50437;51.970;5.904;2022-12-10T06:41:40;-2.20;99.90
64143;DHT22;50437;51.970;5.904;2022-12-10T06:44:10;-2.20;99.90
64143;DHT22;50437;51.970;5.904;2022-12-10T06:46:36;-2.30;99.90
64143;DHT22;50437;51.970;5.904;2022-12-10T06:49:02;-2.30;99.90
64143;DHT22;50437;51.970;5.904;2022-12-10T06:51:28;-2.40;99.90
64143;DHT22;50437;51.970;5.904;2022-12-10T06:53:55;-2.40;99.90
64143;DHT22;50437;51.970;5.904;2022-12-10T06:56:21;-2.50;99.90
64143;DHT22;50437;51.970;5.904;2022-12-10T06:58:47;-2.40;99.90
64143;DHT22;50437;51.970;5.904;2022-12-10T07:01:19;-2.30;99.90
64143;DHT22;50437;51.970;5.904;2022-12-10T07:03:48;-2.40;99.90
64143;DHT22;50437;51.970;5.904;2022-12-10T07:06:15;-2.40;99.90
64143;DHT22;50437;51.970;5.904;2022-12-10T07:08:41;-2.40;99.90
64143;DHT22;50437;51.970;5.904;2022-12-10T07:11:08;-2.40;99.90
64143;DHT22;50437;51.970;5.904;2022-12-10T07:13:35;-2.30;99.90
64143;DHT22;50437;51.970;5.904;2022-12-10T07:16:01;-2.20;99.90
64143;DHT22;50437;51.970;5.904;2022-12-10T07:18:27;-2.20;99.90
64143;DHT22;50437;51.970;5.904;2022-12-10T07:20:53;-2.30;99.90
64143;DHT22;50437;51.970;5.904;2022-12-10T07:23:19;-2.40;99.90
64143;DHT22;50437;51.970;5.904;2022-12-10T07:25:45;-2.40;99.90
64143;DHT22;50437;51.970;5.904;2022-12-10T07:28:11;-2.40;99.90
64143;DHT22;50437;51.970;5.904;2022-12-10T07:30:37;-2.30;99.90
64143;DHT22;50437;51.970;5.904;2022-12-10T07:33:03;-2.30;99.90
64143;DHT22;50437;51.970;5.904;2022-12-10T07:35:29;-2.30;99.90
64143;DHT22;50437;51.970;5.904;2022-12-10T07:37:55;-2.40;99.90
64143;DHT22;50437;51.970;5.904;2022-12-10T07:40:21;-2.40;99.90
64143;DHT22;50437;51.970;5.904;2022-12-10T07:42:47;-2.40;99.90
64143;DHT22;50437;51.970;5.904;2022-12-10T07:45:13;-2.30;99.90
64143;DHT22;50437;51.970;5.904;2022-12-10T07:47:39;-2.30;99.90
64143;DHT22;50437;51.970;5.904;2022-12-10T07:50:05;-2.20;99.90
64143;DHT22;50437;51.970;5.904;2022-12-10T07:52:31;-2.20;99.90
64143;DHT22;50437;51.970;5.904;2022-12-10T07:54:57;-2.30;99.90
64143;DHT22;50437;51.970;5.904;2022-12-10T07:57:23;-2.20;99.90
64143;DHT22;50437;51.970;5.904;2022-12-10T07:59:49;-2.20;99.90
64143;DHT22;50437;51.970;5.904;2022-12-10T08:02:15;-2.10;99.90
64143;DHT22;50437;51.970;5.904;2022-12-10T08:04:41;-2.00;99.90
64143;DHT22;50437;51.970;5.904;2022-12-10T08:07:07;-2.10;99.90
64143;DHT22;50437;51.970;5.904;2022-12-10T08:09:33;-2.10;99.90
64143;DHT22;50437;51.970;5.904;2022-12-10T08:11:59;-2.00;99.90
64143;DHT22;50437;51.970;5.904;2022-12-10T08:14:25;-2.00;99.90
64143;DHT22;50437;51.970;5.904;2022-12-10T08:16:51;-2.00;99.90
64143;DHT22;50437;51.970;5.904;2022-12-10T08:19:17;-1.90;99.90
64143;DHT22;50437;51.970;5.904;2022-12-10T08:21:43;-2.00;99.90
64143;DHT22;50437;51.970;5.904;2022-12-10T08:24:09;-2.00;99.90
64143;DHT22;50437;51.970;5.904;2022-12-10T08:26:35;-2.00;99.90
64143;DHT22;50437;51.970;5.904;2022-12-10T08:29:01;-2.00;99.90
64143;DHT22;50437;51.970;5.904;2022-12-10T08:31:27;-2.00;99.90
64143;DHT22;50437;51.970;5.904;2022-12-10T08:33:53;-2.00;99.90
64143;DHT22;50437;51.970;5.904;2022-12-10T08:36:19;-1.90;99.90
64143;DHT22;50437;51.970;5.904;2022-12-10T08:38:45;-1.90;99.90
64143;DHT22;50437;51.970;5.904;2022-12-10T08:41:16;-1.90;99.90
64143;DHT22;50437;51.970;5.904;2022-12-10T08:43:42;-1.90;99.90
64143;DHT22;50437;51.970;5.904;2022-12-10T08:46:08;-1.90;99.90
64143;DHT22;50437;51.970;5.904;2022-12-10T08:48:35;-1.80;99.90
64143;DHT22;50437;51.970;5.904;2022-12-10T08:51:02;-1.80;99.90
64143;DHT22;50437;51.970;5.904;2022-12-10T08:53:28;-1.80;99.90
64143;DHT22;50437;51.970;5.904;2022-12-10T08:55:54;-1.80;99.90
64143;DHT22;50437;51.970;5.904;2022-12-10T08:58:20;-1.70;99.90
64143;DHT22;50437;51.970;5.904;2022-12-10T09:00:49;-1.70;99.90
64143;DHT22;50437;51.970;5.904;2022-12-10T09:03:15;-1.70;99.90
64143;DHT22;50437;51.970;5.904;2022-12-10T09:05:41;-1.70;99.90
64143;DHT22;50437;51.970;5.904;2022-12-10T09:08:07;-1.60;99.90
64143;DHT22;50437;51.970;5.904;2022-12-10T09:10:41;-1.60;99.90
64143;DHT22;50437;51.970;5.904;2022-12-10T09:13:07;-1.50;99.90
64143;DHT22;50437;51.970;5.904;2022-12-10T09:15:33;-1.60;99.90
64143;DHT22;50437;51.970;5.904;2022-12-10T09:17:59;-1.50;99.90
64143;DHT22;50437;51.970;5.904;2022-12-10T09:20:25;-1.50;99.90
64143;DHT22;50437;51.970;5.904;2022-12-10T09:22:51;-1.60;99.90
64143;DHT22;50437;51.970;5.904;2022-12-10T09:25:17;-1.50;99.90
64143;DHT22;50437;51.970;5.904;2022-12-10T09:27:47;-1.50;99.90
64143;DHT22;50437;51.970;5.904;2022-12-10T09:30:12;-1.50;99.90
64143;DHT22;50437;51.970;5.904;2022-12-10T09:32:38;-1.40;99.90
64143;DHT22;50437;51.970;5.904;2022-12-10T09:35:04;-1.30;99.90
64143;DHT22;50437;51.970;5.904;2022-12-10T09:37:31;-1.30;99.90
64143;DHT22;50437;51.970;5.904;2022-12-10T09:39:57;-1.30;99.90
64143;DHT22;50437;51.970;5.904;2022-12-10T09:42:42;-1.40;99.90
64143;DHT22;50437;51.970;5.904;2022-12-10T09:50:50;-1.30;99.90
64143;DHT22;50437;51.970;5.904;2022-12-10T09:53:19;-1.30;99.90
64143;DHT22;50437;51.970;5.904;2022-12-10T09:55:47;-1.20;99.90
64143;DHT22;50437;51.970;5.904;2022-12-10T09:58:14;-1.20;99.90
64143;DHT22;50437;51.970;5.904;2022-12-10T10:00:42;-1.20;99.90
64143;DHT22;50437;51.970;5.904;2022-12-10T10:03:13;-1.20;99.90
64143;DHT22;50437;51.970;5.904;2022-12-10T10:05:50;-1.20;99.90
64143;DHT22;50437;51.970;5.904;2022-12-10T10:08:31;-1.20;99.90
64143;DHT22;50437;51.970;5.904;2022-12-10T10:10:58;-1.20;99.90
64143;DHT22;50437;51.970;5.904;2022-12-10T10:15:50;-1.10;99.90
64143;DHT22;50437;51.970;5.904;2022-12-10T10:18:35;-1.00;99.90
64143;DHT22;50437;51.970;5.904;2022-12-10T10:21:04;-1.00;99.90
64143;DHT22;50437;51.970;5.904;2022-12-10T10:23:30;-1.10;99.90
64143;DHT22;50437;51.970;5.904;2022-12-10T10:25:56;-1.10;99.90
64143;DHT22;50437;51.970;5.904;2022-12-10T10:28:22;-1.10;99.90
64143;DHT22;50437;51.970;5.904;2022-12-10T10:30:48;-1.00;99.90
64143;DHT22;50437;51.970;5.904;2022-12-10T10:33:17;-1.10;99.90
64143;DHT22;50437;51.970;5.904;2022-12-10T10:35:50;-1.00;99.90
64143;DHT22;50437;51.970;5.904;2022-12-10T10:38:20;-0.90;99.90
64143;DHT22;50437;51.970;5.904;2022-12-10T10:40:55;-0.90;99.90
64143;DHT22;50437;51.970;5.904;2022-12-10T10:43:31;-0.90;99.90
64143;DHT22;50437;51.970;5.904;2022-12-10T10:48:26;-0.90;99.90
64143;DHT22;50437;51.970;5.904;2022-12-10T10:53:26;-0.90;99.90
64143;DHT22;50437;51.970;5.904;2022-12-10T10:55:58;-1.00;99.90
64143;DHT22;50437;51.970;5.904;2022-12-10T10:58:28;-1.10;99.90
64143;DHT22;50437;51.970;5.904;2022-12-10T11:01:02;-1.00;99.90
64143;DHT22;50437;51.970;5.904;2022-12-10T11:03:28;-0.90;99.90
64143;DHT22;50437;51.970;5.904;2022-12-10T11:05:56;-0.90;99.90
64143;DHT22;50437;51.970;5.904;2022-12-10T11:08:23;-0.90;99.90
64143;DHT22;50437;51.970;5.904;2022-12-10T11:10:51;-0.90;99.90
64143;DHT22;50437;51.970;5.904;2022-12-10T11:13:23;-0.80;99.90
64143;DHT22;50437;51.970;5.904;2022-12-10T11:18:35;-0.80;99.90
64143;DHT22;50437;51.970;5.904;2022-12-10T11:23:47;-0.60;99.90
64143;DHT22;50437;51.970;5.904;2022-12-10T11:26:32;-0.50;99.90
64143;DHT22;50437;51.970;5.904;2022-12-10T11:44:54;-0.50;99.90
64143;DHT22;50437;51.970;5.904;2022-12-10T11:50:12;-0.50;99.90
64143;DHT22;50437;51.970;5.904;2022-12-10T11:52:52;-0.60;99.90
64143;DHT22;50437;51.970;5.904;2022-12-10T11:58:04;-0.60;99.90
64143;DHT22;50437;51.970;5.904;2022-12-10T12:00:55;-0.60;99.90
64143;DHT22;50437;51.970;5.904;2022-12-10T12:09:30;-0.50;99.90
64143;DHT22;50437;51.970;5.904;2022-12-10T12:14:19;-0.50;99.90
64143;DHT22;50437;51.970;5.904;2022-12-10T12:17:01;-0.50;99.90
64143;DHT22;50437;51.970;5.904;2022-12-10T12:19:46;-0.60;99.90
64143;DHT22;50437;51.970;5.904;2022-12-10T12:22:24;-0.70;99.90
64143;DHT22;50437;51.970;5.904;2022-12-10T12:24:56;-0.70;99.90
64143;DHT22;50437;51.970;5.904;2022-12-10T12:27:41;-0.60;99.90
64143;DHT22;50437;51.970;5.904;2022-12-10T12:32:40;-0.60;99.90
64143;DHT22;50437;51.970;5.904;2022-12-10T12:35:20;-0.80;99.90
64143;DHT22;50437;51.970;5.904;2022-12-10T12:37:54;-0.70;99.90
64143;DHT22;50437;51.970;5.904;2022-12-10T12:40:28;-0.70;99.90
64143;DHT22;50437;51.970;5.904;2022-12-10T12:45:31;-0.60;99.90
64143;DHT22;50437;51.970;5.904;2022-12-10T12:48:01;-0.60;99.90
64143;DHT22;50437;51.970;5.904;2022-12-10T12:53:16;-0.60;99.90
64143;DHT22;50437;51.970;5.904;2022-12-10T12:58:38;-0.50;99.90
64143;DHT22;50437;51.970;5.904;2022-12-10T13:03:50;-0.50;99.90
64143;DHT22;50437;51.970;5.904;2022-12-10T13:08:46;-0.50;99.90
64143;DHT22;50437;51.970;5.904;2022-12-10T13:13:39;-0.70;99.90
64143;DHT22;50437;51.970;5.904;2022-12-10T13:18:53;-0.50;99.90
64143;DHT22;50437;51.970;5.904;2022-12-10T13:21:37;-0.50;99.90
64143;DHT22;50437;51.970;5.904;2022-12-10T13:24:25;-0.40;99.90
64143;DHT22;50437;51.970;5.904;2022-12-10T13:29:43;-0.60;99.90
64143;DHT22;50437;51.970;5.904;2022-12-10T13:32:14;-0.60;99.90
64143;DHT22;50437;51.970;5.904;2022-12-10T13:34:40;-0.80;99.90
64143;DHT22;50437;51.970;5.904;2022-12-10T13:39:45;-0.90;99.90
64143;DHT22;50437;51.970;5.904;2022-12-10T13:45:29;-0.80;99.90
64143;DHT22;50437;51.970;5.904;2022-12-10T13:48:15;-0.70;99.90
64143;DHT22;50437;51.970;5.904;2022-12-10T13:50:52;-0.80;99.90
64143;DHT22;50437;51.970;5.904;2022-12-10T13:53:22;-0.80;99.90
64143;DHT22;50437;51.970;5.904;2022-12-10T14:08:32;-0.60;99.90
64143;DHT22;50437;51.970;5.904;2022-12-10T14:10:59;-0.60;99.90
64143;DHT22;50437;51.970;5.904;2022-12-10T14:13:33;-0.60;99.90
64143;DHT22;50437;51.970;5.904;2022-12-10T14:16:01;-0.60;99.90
64143;DHT22;50437;51.970;5.904;2022-12-10T14:18:27;-0.60;99.90
64143;DHT22;50437;51.970;5.904;2022-12-10T14:20:54;-0.70;99.90
64143;DHT22;50437;51.970;5.904;2022-12-10T14:23:28;-0.80;99.90
64143;DHT22;50437;51.970;5.904;2022-12-10T14:28:41;-0.70;99.90
64143;DHT22;50437;51.970;5.904;2022-12-10T14:31:10;-0.70;99.90
64143;DHT22;50437;51.970;5.904;2022-12-10T14:33:40;-0.70;99.90
64143;DHT22;50437;51.970;5.904;2022-12-10T14:36:06;-0.70;99.90
64143;DHT22;50437;51.970;5.904;2022-12-10T14:38:33;-0.70;99.90
64143;DHT22;50437;51.970;5.904;2022-12-10T14:40:59;-0.70;99.90
64143;DHT22;50437;51.970;5.904;2022-12-10T14:43:30;-0.70;99.90
64143;DHT22;50437;51.970;5.904;2022-12-10T14:45:59;-0.60;99.90
64143;DHT22;50437;51.970;5.904;2022-12-10T14:48:26;-0.70;99.90
64143;DHT22;50437;51.970;5.904;2022-12-10T14:50:53;-0.70;99.90
64143;DHT22;50437;51.970;5.904;2022-12-10T14:53:25;-0.70;99.90
64143;DHT22;50437;51.970;5.904;2022-12-10T14:58:55;-0.80;99.90
64143;DHT22;50437;51.970;5.904;2022-12-10T15:01:29;-0.80;99.90
64143;DHT22;50437;51.970;5.904;2022-12-10T15:03:56;-0.80;99.90
64143;DHT22;50437;51.970;5.904;2022-12-10T15:06:23;-0.70;99.90
64143;DHT22;50437;51.970;5.904;2022-12-10T15:08:49;-0.80;99.90
64143;DHT22;50437;51.970;5.904;2022-12-10T15:11:18;-0.80;99.90
64143;DHT22;50437;51.970;5.904;2022-12-10T15:13:46;-0.80;99.90
64143;DHT22;50437;51.970;5.904;2022-12-10T15:16:38;-0.70;99.90
64143;DHT22;50437;51.970;5.904;2022-12-10T15:19:13;-0.80;99.90
64143;DHT22;50437;51.970;5.904;2022-12-10T15:21:42;-0.70;99.90
64143;DHT22;50437;51.970;5.904;2022-12-10T15:24:54;-0.80;99.90
64143;DHT22;50437;51.970;5.904;2022-12-10T15:26:54;-0.80;99.90
64143;DHT22;50437;51.970;5.904;2022-12-10T15:31:57;-0.80;99.90
64143;DHT22;50437;51.970;5.904;2022-12-10T15:34:28;-0.80;99.90
64143;DHT22;50437;51.970;5.904;2022-12-10T15:36:56;-0.80;99.90
64143;DHT22;50437;51.970;5.904;2022-12-10T15:39:30;-0.80;99.90
64143;DHT22;50437;51.970;5.904;2022-12-10T15:42:01;-0.80;99.90
64143;DHT22;50437;51.970;5.904;2022-12-10T15:47:01;-0.70;99.90
64143;DHT22;50437;51.970;5.904;2022-12-10T15:49:28;-0.60;99.90
64143;DHT22;50437;51.970;5.904;2022-12-10T15:51:55;-0.60;99.90
64143;DHT22;50437;51.970;5.904;2022-12-10T15:56:47;-0.70;99.90
64143;DHT22;50437;51.970;5.904;2022-12-10T15:59:13;-0.70;99.90
64143;DHT22;50437;51.970;5.904;2022-12-10T16:01:39;-0.80;99.90
64143;DHT22;50437;51.970;5.904;2022-12-10T16:04:05;-0.80;99.90
64143;DHT22;50437;51.970;5.904;2022-12-10T16:06:31;-0.80;99.90
64143;DHT22;50437;51.970;5.904;2022-12-10T16:08:57;-0.70;99.90
64143;DHT22;50437;51.970;5.904;2022-12-10T16:11:23;-0.70;99.90
64143;DHT22;50437;51.970;5.904;2022-12-10T16:13:51;-0.70;99.90
64143;DHT22;50437;51.970;5.904;2022-12-10T16:16:18;-0.60;99.90
64143;DHT22;50437;51.970;5.904;2022-12-10T16:18:44;-0.70;99.90
64143;DHT22;50437;51.970;5.904;2022-12-10T16:21:10;-0.60;99.90
64143;DHT22;50437;51.970;5.904;2022-12-10T16:23:38;-0.70;99.90
64143;DHT22;50437;51.970;5.904;2022-12-10T16:26:23;-0.70;99.90
64143;DHT22;50437;51.970;5.904;2022-12-10T16:28:49;-0.70;99.90
64143;DHT22;50437;51.970;5.904;2022-12-10T16:31:17;-0.70;99.90
64143;DHT22;50437;51.970;5.904;2022-12-10T16:33:43;-0.70;99.90
64143;DHT22;50437;51.970;5.904;2022-12-10T16:36:12;-0.60;99.90
64143;DHT22;50437;51.970;5.904;2022-12-10T16:38:39;-0.70;99.90
64143;DHT22;50437;51.970;5.904;2022-12-10T16:41:15;-0.70;99.90
64143;DHT22;50437;51.970;5.904;2022-12-10T16:43:41;-0.60;99.90
64143;DHT22;50437;51.970;5.904;2022-12-10T16:46:09;-0.70;99.90
64143;DHT22;50437;51.970;5.904;2022-12-10T16:48:35;-0.60;99.90
64143;DHT22;50437;51.970;5.904;2022-12-10T16:51:01;-0.60;99.90
64143;DHT22;50437;51.970;5.904;2022-12-10T16:53:27;-0.60;99.90
64143;DHT22;50437;51.970;5.904;2022-12-10T16:55:54;-0.60;99.90
64143;DHT22;50437;51.970;5.904;2022-12-10T16:58:23;-0.60;99.90
64143;DHT22;50437;51.970;5.904;2022-12-10T17:00:53;-0.50;99.90
64143;DHT22;50437;51.970;5.904;2022-12-10T17:03:21;-0.50;99.90
64143;DHT22;50437;51.970;5.904;2022-12-10T17:05:48;-0.50;99.90
64143;DHT22;50437;51.970;5.904;2022-12-10T17:08:16;-0.50;99.90
64143;DHT22;50437;51.970;5.904;2022-12-10T17:10:45;-0.50;99.90
64143;DHT22;50437;51.970;5.904;2022-12-10T17:13:32;-0.50;99.90
64143;DHT22;50437;51.970;5.904;2022-12-10T17:15:59;-0.50;99.90
64143;DHT22;50437;51.970;5.904;2022-12-10T17:18:28;-0.50;99.90
64143;DHT22;50437;51.970;5.904;2022-12-10T17:20:57;-0.50;99.90
64143;DHT22;50437;51.970;5.904;2022-12-10T17:23:26;-0.50;99.90
64143;DHT22;50437;51.970;5.904;2022-12-10T17:26:15;-0.50;99.90
64143;DHT22;50437;51.970;5.904;2022-12-10T17:28:44;-0.50;99.90
64143;DHT22;50437;51.970;5.904;2022-12-10T17:31:10;-0.50;99.90
64143;DHT22;50437;51.970;5.904;2022-12-10T17:33:36;-0.50;99.90
64143;DHT22;50437;51.970;5.904;2022-12-10T17:36:02;-0.50;99.90